sensor_id;sensor_type;location;lat;lon;timestamp;P1;durP1;ratioP1;P2;durP2;ratioP2
45784;SDS011;31489;51.404;5.474;2023-02-15T00:01:24;28.83;;;16.15;;
45784;SDS011;31489;51.404;5.474;2023-02-15T00:03:50;26.60;;;17.20;;
45784;SDS011;31489;51.404;5.474;2023-02-15T00:06:16;29.02;;;17.65;;
45784;SDS011;31489;51.404;5.474;2023-02-15T00:08:42;28.75;;;18.13;;
45784;SDS011;31489;51.404;5.474;2023-02-15T00:11:09;26.63;;;16.50;;
45784;SDS011;31489;51.404;5.474;2023-02-15T00:13:36;24.17;;;15.55;;
45784;SDS011;31489;51.404;5.474;2023-02-15T00:16:04;27.17;;;16.80;;
45784;SDS011;31489;51.404;5.474;2023-02-15T00:18:31;28.83;;;16.67;;
45784;SDS011;31489;51.404;5.474;2023-02-15T00:20:57;28.30;;;17.30;;
45784;SDS011;31489;51.404;5.474;2023-02-15T00:23:23;30.35;;;17.05;;
45784;SDS011;31489;51.404;5.474;2023-02-15T00:25:49;31.35;;;16.85;;
45784;SDS011;31489;51.404;5.474;2023-02-15T00:28:15;25.80;;;16.25;;
45784;SDS011;31489;51.404;5.474;2023-02-15T00:30:41;29.20;;;17.60;;
45784;SDS011;31489;51.404;5.474;2023-02-15T00:33:06;29.58;;;17.45;;
45784;SDS011;31489;51.404;5.474;2023-02-15T00:35:32;27.08;;;16.83;;
45784;SDS011;31489;51.404;5.474;2023-02-15T00:37:57;32.25;;;18.63;;
45784;SDS011;31489;51.404;5.474;2023-02-15T00:40:23;27.20;;;17.27;;
45784;SDS011;31489;51.404;5.474;2023-02-15T00:42:50;32.10;;;17.92;;
45784;SDS011;31489;51.404;5.474;2023-02-15T00:45:15;29.23;;;17.85;;
45784;SDS011;31489;51.404;5.474;2023-02-15T00:47:41;27.73;;;17.10;;
45784;SDS011;31489;51.404;5.474;2023-02-15T00:50:07;30.00;;;17.98;;
45784;SDS011;31489;51.404;5.474;2023-02-15T00:52:33;28.63;;;17.73;;
45784;SDS011;31489;51.404;5.474;2023-02-15T00:54:58;29.55;;;17.40;;
45784;SDS011;31489;51.404;5.474;2023-02-15T00:57:24;31.15;;;17.75;;
45784;SDS011;31489;51.404;5.474;2023-02-15T00:59:49;28.42;;;17.80;;
45784;SDS011;31489;51.404;5.474;2023-02-15T01:02:15;32.47;;;18.52;;
45784;SDS011;31489;51.404;5.474;2023-02-15T01:04:41;29.05;;;18.00;;
45784;SDS011;31489;51.404;5.474;2023-02-15T01:07:06;29.35;;;17.80;;
45784;SDS011;31489;51.404;5.474;2023-02-15T01:09:32;30.65;;;18.42;;
45784;SDS011;31489;51.404;5.474;2023-02-15T01:11:58;33.80;;;17.88;;
45784;SDS011;31489;51.404;5.474;2023-02-15T01:14:23;25.23;;;16.92;;
45784;SDS011;31489;51.404;5.474;2023-02-15T01:16:49;31.13;;;18.42;;
45784;SDS011;31489;51.404;5.474;2023-02-15T01:19:14;28.10;;;17.80;;
45784;SDS011;31489;51.404;5.474;2023-02-15T01:21:40;25.67;;;16.63;;
45784;SDS011;31489;51.404;5.474;2023-02-15T01:24:10;25.95;;;17.67;;
45784;SDS011;31489;51.404;5.474;2023-02-15T01:26:38;28.45;;;17.30;;
45784;SDS011;31489;51.404;5.474;2023-02-15T01:29:03;32.15;;;17.30;;
45784;SDS011;31489;51.404;5.474;2023-02-15T01:31:29;27.50;;;17.38;;
45784;SDS011;31489;51.404;5.474;2023-02-15T01:33:54;30.23;;;16.55;;
45784;SDS011;31489;51.404;5.474;2023-02-15T01:36:20;29.98;;;16.50;;
45784;SDS011;31489;51.404;5.474;2023-02-15T01:38:45;28.05;;;17.77;;
45784;SDS011;31489;51.404;5.474;2023-02-15T01:41:11;29.25;;;17.10;;
45784;SDS011;31489;51.404;5.474;2023-02-15T01:43:52;28.05;;;16.42;;
45784;SDS011;31489;51.404;5.474;2023-02-15T01:46:20;27.80;;;17.63;;
45784;SDS011;31489;51.404;5.474;2023-02-15T01:49:09;32.25;;;16.83;;
45784;SDS011;31489;51.404;5.474;2023-02-15T01:51:45;26.35;;;17.30;;
45784;SDS011;31489;51.404;5.474;2023-02-15T01:54:17;29.08;;;17.23;;
45784;SDS011;31489;51.404;5.474;2023-02-15T01:57:13;28.02;;;15.95;;
45784;SDS011;31489;51.404;5.474;2023-02-15T01:59:43;25.88;;;16.98;;
45784;SDS011;31489;51.404;5.474;2023-02-15T02:02:14;28.48;;;16.60;;
45784;SDS011;31489;51.404;5.474;2023-02-15T02:04:45;31.05;;;17.02;;
45784;SDS011;31489;51.404;5.474;2023-02-15T02:07:17;26.88;;;17.27;;
45784;SDS011;31489;51.404;5.474;2023-02-15T02:09:45;28.80;;;17.05;;
45784;SDS011;31489;51.404;5.474;2023-02-15T02:12:11;29.40;;;16.55;;
45784;SDS011;31489;51.404;5.474;2023-02-15T02:14:37;30.10;;;17.35;;
45784;SDS011;31489;51.404;5.474;2023-02-15T02:34:16;25.38;;;14.88;;
45784;SDS011;31489;51.404;5.474;2023-02-15T02:44:43;26.15;;;15.90;;
45784;SDS011;31489;51.404;5.474;2023-02-15T02:47:17;25.83;;;15.30;;
45784;SDS011;31489;51.404;5.474;2023-02-15T02:49:51;26.52;;;16.50;;
45784;SDS011;31489;51.404;5.474;2023-02-15T03:00:27;25.88;;;16.63;;
45784;SDS011;31489;51.404;5.474;2023-02-15T03:03:00;27.75;;;16.13;;
45784;SDS011;31489;51.404;5.474;2023-02-15T03:05:31;28.55;;;16.73;;
45784;SDS011;31489;51.404;5.474;2023-02-15T03:07:58;25.88;;;16.10;;
45784;SDS011;31489;51.404;5.474;2023-02-15T03:10:30;26.92;;;16.42;;
45784;SDS011;31489;51.404;5.474;2023-02-15T03:12:58;26.70;;;16.02;;
45784;SDS011;31489;51.404;5.474;2023-02-15T03:15:25;26.17;;;16.45;;
45784;SDS011;31489;51.404;5.474;2023-02-15T03:18:14;29.30;;;16.45;;
45784;SDS011;31489;51.404;5.474;2023-02-15T03:20:42;28.92;;;16.70;;
45784;SDS011;31489;51.404;5.474;2023-02-15T03:23:13;27.33;;;16.40;;
45784;SDS011;31489;51.404;5.474;2023-02-15T03:25:44;24.55;;;16.67;;
45784;SDS011;31489;51.404;5.474;2023-02-15T03:28:16;23.48;;;15.23;;
45784;SDS011;31489;51.404;5.474;2023-02-15T03:30:47;24.73;;;16.02;;
45784;SDS011;31489;51.404;5.474;2023-02-15T03:33:16;27.25;;;15.70;;
45784;SDS011;31489;51.404;5.474;2023-02-15T03:35:49;30.70;;;16.73;;
45784;SDS011;31489;51.404;5.474;2023-02-15T03:38:23;25.50;;;15.68;;
45784;SDS011;31489;51.404;5.474;2023-02-15T03:41:12;26.42;;;15.55;;
45784;SDS011;31489;51.404;5.474;2023-02-15T03:46:30;27.50;;;16.80;;
45784;SDS011;31489;51.404;5.474;2023-02-15T03:49:12;26.80;;;15.52;;
45784;SDS011;31489;51.404;5.474;2023-02-15T03:51:56;25.33;;;16.15;;
45784;SDS011;31489;51.404;5.474;2023-02-15T03:54:25;28.58;;;16.40;;
45784;SDS011;31489;51.404;5.474;2023-02-15T03:57:18;25.38;;;15.65;;
45784;SDS011;31489;51.404;5.474;2023-02-15T04:00:15;20.95;;;14.85;;
45784;SDS011;31489;51.404;5.474;2023-02-15T04:05:40;28.25;;;15.40;;
45784;SDS011;31489;51.404;5.474;2023-02-15T04:08:10;23.85;;;15.32;;
45784;SDS011;31489;51.404;5.474;2023-02-15T04:10:36;20.75;;;14.10;;
45784;SDS011;31489;51.404;5.474;2023-02-15T04:13:17;27.08;;;15.38;;
45784;SDS011;31489;51.404;5.474;2023-02-15T04:15:47;23.42;;;14.32;;
45784;SDS011;31489;51.404;5.474;2023-02-15T04:18:35;22.65;;;14.82;;
45784;SDS011;31489;51.404;5.474;2023-02-15T04:21:25;23.98;;;14.73;;
45784;SDS011;31489;51.404;5.474;2023-02-15T04:26:55;20.88;;;13.82;;
45784;SDS011;31489;51.404;5.474;2023-02-15T04:29:21;23.10;;;15.25;;
45784;SDS011;31489;51.404;5.474;2023-02-15T04:31:48;21.13;;;14.07;;
45784;SDS011;31489;51.404;5.474;2023-02-15T04:34:15;25.33;;;14.02;;
45784;SDS011;31489;51.404;5.474;2023-02-15T04:36:41;27.40;;;14.60;;
45784;SDS011;31489;51.404;5.474;2023-02-15T04:39:07;24.92;;;14.95;;
45784;SDS011;31489;51.404;5.474;2023-02-15T04:41:33;25.98;;;14.40;;
45784;SDS011;31489;51.404;5.474;2023-02-15T04:44:00;25.33;;;15.25;;
45784;SDS011;31489;51.404;5.474;2023-02-15T04:46:26;25.38;;;14.80;;
45784;SDS011;31489;51.404;5.474;2023-02-15T04:48:52;24.15;;;14.85;;
45784;SDS011;31489;51.404;5.474;2023-02-15T04:51:19;22.27;;;15.27;;
45784;SDS011;31489;51.404;5.474;2023-02-15T04:53:44;27.88;;;15.57;;
45784;SDS011;31489;51.404;5.474;2023-02-15T04:56:10;25.88;;;14.23;;
45784;SDS011;31489;51.404;5.474;2023-02-15T04:58:35;23.67;;;14.65;;
45784;SDS011;31489;51.404;5.474;2023-02-15T05:01:01;24.42;;;14.77;;
45784;SDS011;31489;51.404;5.474;2023-02-15T05:03:27;21.17;;;14.07;;
45784;SDS011;31489;51.404;5.474;2023-02-15T05:05:53;20.65;;;14.20;;
45784;SDS011;31489;51.404;5.474;2023-02-15T05:08:19;23.45;;;14.90;;
45784;SDS011;31489;51.404;5.474;2023-02-15T05:10:47;19.63;;;14.05;;
45784;SDS011;31489;51.404;5.474;2023-02-15T05:13:13;25.42;;;14.43;;
45784;SDS011;31489;51.404;5.474;2023-02-15T05:15:39;23.00;;;13.57;;
45784;SDS011;31489;51.404;5.474;2023-02-15T05:18:04;21.38;;;13.27;;
45784;SDS011;31489;51.404;5.474;2023-02-15T05:20:32;22.25;;;14.00;;
45784;SDS011;31489;51.404;5.474;2023-02-15T05:22:58;24.10;;;14.20;;
45784;SDS011;31489;51.404;5.474;2023-02-15T05:25:23;23.38;;;14.43;;
45784;SDS011;31489;51.404;5.474;2023-02-15T05:28:09;22.27;;;14.70;;
45784;SDS011;31489;51.404;5.474;2023-02-15T05:30:45;25.60;;;14.57;;
45784;SDS011;31489;51.404;5.474;2023-02-15T05:33:14;21.65;;;14.60;;
45784;SDS011;31489;51.404;5.474;2023-02-15T05:35:40;24.10;;;14.35;;
45784;SDS011;31489;51.404;5.474;2023-02-15T05:38:06;22.02;;;13.93;;
45784;SDS011;31489;51.404;5.474;2023-02-15T05:40:31;22.27;;;14.73;;
45784;SDS011;31489;51.404;5.474;2023-02-15T05:42:57;20.88;;;14.05;;
45784;SDS011;31489;51.404;5.474;2023-02-15T05:45:23;23.65;;;14.57;;
45784;SDS011;31489;51.404;5.474;2023-02-15T05:47:48;22.33;;;13.75;;
45784;SDS011;31489;51.404;5.474;2023-02-15T05:50:14;21.63;;;15.35;;
45784;SDS011;31489;51.404;5.474;2023-02-15T05:52:40;24.05;;;14.80;;
45784;SDS011;31489;51.404;5.474;2023-02-15T05:55:06;22.80;;;14.93;;
45784;SDS011;31489;51.404;5.474;2023-02-15T05:57:33;26.58;;;15.05;;
45784;SDS011;31489;51.404;5.474;2023-02-15T05:59:59;24.70;;;15.40;;
45784;SDS011;31489;51.404;5.474;2023-02-15T06:02:25;22.17;;;14.48;;
45784;SDS011;31489;51.404;5.474;2023-02-15T06:04:51;22.27;;;14.75;;
45784;SDS011;31489;51.404;5.474;2023-02-15T06:07:17;22.25;;;14.40;;
45784;SDS011;31489;51.404;5.474;2023-02-15T06:09:42;22.38;;;14.57;;
45784;SDS011;31489;51.404;5.474;2023-02-15T06:12:08;23.17;;;15.05;;
45784;SDS011;31489;51.404;5.474;2023-02-15T06:14:33;23.52;;;14.70;;
45784;SDS011;31489;51.404;5.474;2023-02-15T06:16:59;23.50;;;14.80;;
45784;SDS011;31489;51.404;5.474;2023-02-15T06:19:24;22.05;;;14.38;;
45784;SDS011;31489;51.404;5.474;2023-02-15T06:21:50;22.85;;;14.38;;
45784;SDS011;31489;51.404;5.474;2023-02-15T06:24:16;21.80;;;13.82;;
45784;SDS011;31489;51.404;5.474;2023-02-15T06:26:41;25.90;;;14.45;;
45784;SDS011;31489;51.404;5.474;2023-02-15T06:29:07;23.98;;;14.00;;
45784;SDS011;31489;51.404;5.474;2023-02-15T06:31:32;23.13;;;15.27;;
45784;SDS011;31489;51.404;5.474;2023-02-15T06:33:58;24.65;;;15.05;;
45784;SDS011;31489;51.404;5.474;2023-02-15T06:36:30;21.75;;;13.98;;
45784;SDS011;31489;51.404;5.474;2023-02-15T06:38:56;20.67;;;14.60;;
45784;SDS011;31489;51.404;5.474;2023-02-15T06:41:22;28.42;;;15.80;;
45784;SDS011;31489;51.404;5.474;2023-02-15T06:43:48;26.23;;;14.68;;
45784;SDS011;31489;51.404;5.474;2023-02-15T06:46:14;27.88;;;15.35;;
45784;SDS011;31489;51.404;5.474;2023-02-15T06:48:40;25.52;;;14.63;;
45784;SDS011;31489;51.404;5.474;2023-02-15T06:51:05;20.70;;;14.30;;
45784;SDS011;31489;51.404;5.474;2023-02-15T06:53:31;22.73;;;15.13;;
45784;SDS011;31489;51.404;5.474;2023-02-15T06:56:01;24.92;;;15.43;;
45784;SDS011;31489;51.404;5.474;2023-02-15T06:58:38;23.13;;;14.50;;
45784;SDS011;31489;51.404;5.474;2023-02-15T07:01:04;23.85;;;15.60;;
45784;SDS011;31489;51.404;5.474;2023-02-15T07:03:31;22.65;;;15.20;;
45784;SDS011;31489;51.404;5.474;2023-02-15T07:05:57;27.05;;;16.08;;
45784;SDS011;31489;51.404;5.474;2023-02-15T07:08:24;24.23;;;15.93;;
45784;SDS011;31489;51.404;5.474;2023-02-15T07:10:51;24.88;;;15.15;;
45784;SDS011;31489;51.404;5.474;2023-02-15T07:13:18;23.55;;;14.52;;
45784;SDS011;31489;51.404;5.474;2023-02-15T07:15:44;26.15;;;15.18;;
45784;SDS011;31489;51.404;5.474;2023-02-15T07:18:12;27.08;;;15.90;;
45784;SDS011;31489;51.404;5.474;2023-02-15T07:20:38;27.48;;;16.02;;
45784;SDS011;31489;51.404;5.474;2023-02-15T07:23:07;27.58;;;17.10;;
45784;SDS011;31489;51.404;5.474;2023-02-15T07:25:33;21.80;;;14.85;;
45784;SDS011;31489;51.404;5.474;2023-02-15T07:27:59;26.27;;;16.63;;
45784;SDS011;31489;51.404;5.474;2023-02-15T07:30:26;29.00;;;17.83;;
45784;SDS011;31489;51.404;5.474;2023-02-15T07:32:56;27.02;;;14.70;;
45784;SDS011;31489;51.404;5.474;2023-02-15T07:35:51;25.40;;;16.35;;
45784;SDS011;31489;51.404;5.474;2023-02-15T07:38:19;28.60;;;15.57;;
45784;SDS011;31489;51.404;5.474;2023-02-15T07:40:45;29.58;;;16.40;;
45784;SDS011;31489;51.404;5.474;2023-02-15T07:43:11;25.23;;;16.10;;
45784;SDS011;31489;51.404;5.474;2023-02-15T07:45:37;27.00;;;17.98;;
45784;SDS011;31489;51.404;5.474;2023-02-15T07:48:04;29.20;;;16.63;;
45784;SDS011;31489;51.404;5.474;2023-02-15T07:50:30;30.50;;;18.20;;
45784;SDS011;31489;51.404;5.474;2023-02-15T07:52:56;27.05;;;17.60;;
45784;SDS011;31489;51.404;5.474;2023-02-15T07:55:22;27.00;;;16.38;;
45784;SDS011;31489;51.404;5.474;2023-02-15T07:57:48;30.92;;;17.75;;
45784;SDS011;31489;51.404;5.474;2023-02-15T08:00:15;27.17;;;16.73;;
45784;SDS011;31489;51.404;5.474;2023-02-15T08:02:53;28.63;;;17.30;;
45784;SDS011;31489;51.404;5.474;2023-02-15T08:05:39;31.48;;;18.25;;
45784;SDS011;31489;51.404;5.474;2023-02-15T08:08:06;29.40;;;18.27;;
45784;SDS011;31489;51.404;5.474;2023-02-15T08:10:32;28.02;;;16.70;;
45784;SDS011;31489;51.404;5.474;2023-02-15T08:13:17;29.67;;;17.75;;
45784;SDS011;31489;51.404;5.474;2023-02-15T08:15:52;32.00;;;18.65;;
45784;SDS011;31489;51.404;5.474;2023-02-15T08:18:17;30.23;;;17.13;;
45784;SDS011;31489;51.404;5.474;2023-02-15T08:20:48;32.90;;;17.98;;
45784;SDS011;31489;51.404;5.474;2023-02-15T08:23:14;29.77;;;18.52;;
45784;SDS011;31489;51.404;5.474;2023-02-15T08:25:40;29.98;;;18.23;;
45784;SDS011;31489;51.404;5.474;2023-02-15T08:28:06;29.10;;;18.70;;
45784;SDS011;31489;51.404;5.474;2023-02-15T08:30:31;30.52;;;18.95;;
45784;SDS011;31489;51.404;5.474;2023-02-15T08:32:57;30.77;;;19.27;;
45784;SDS011;31489;51.404;5.474;2023-02-15T08:35:24;33.83;;;19.15;;
45784;SDS011;31489;51.404;5.474;2023-02-15T08:37:49;30.38;;;19.40;;
45784;SDS011;31489;51.404;5.474;2023-02-15T08:40:16;28.55;;;19.00;;
45784;SDS011;31489;51.404;5.474;2023-02-15T08:42:42;30.73;;;19.55;;
45784;SDS011;31489;51.404;5.474;2023-02-15T08:45:07;33.42;;;20.08;;
45784;SDS011;31489;51.404;5.474;2023-02-15T08:47:33;28.65;;;18.88;;
45784;SDS011;31489;51.404;5.474;2023-02-15T08:49:59;34.08;;;20.05;;
45784;SDS011;31489;51.404;5.474;2023-02-15T08:52:25;32.92;;;20.38;;
45784;SDS011;31489;51.404;5.474;2023-02-15T08:54:53;31.52;;;20.25;;
45784;SDS011;31489;51.404;5.474;2023-02-15T08:57:22;32.75;;;19.60;;
45784;SDS011;31489;51.404;5.474;2023-02-15T08:59:47;32.88;;;20.20;;
45784;SDS011;31489;51.404;5.474;2023-02-15T09:02:14;34.03;;;20.60;;
45784;SDS011;31489;51.404;5.474;2023-02-15T09:04:40;33.08;;;21.25;;
45784;SDS011;31489;51.404;5.474;2023-02-15T09:07:05;34.10;;;20.85;;
45784;SDS011;31489;51.404;5.474;2023-02-15T09:09:31;32.03;;;20.13;;
45784;SDS011;31489;51.404;5.474;2023-02-15T09:11:57;32.10;;;19.65;;
45784;SDS011;31489;51.404;5.474;2023-02-15T09:14:22;33.40;;;19.45;;
45784;SDS011;31489;51.404;5.474;2023-02-15T09:16:51;31.33;;;19.75;;
45784;SDS011;31489;51.404;5.474;2023-02-15T09:19:18;31.65;;;20.17;;
45784;SDS011;31489;51.404;5.474;2023-02-15T09:21:45;30.88;;;19.35;;
45784;SDS011;31489;51.404;5.474;2023-02-15T09:24:12;32.47;;;20.70;;
45784;SDS011;31489;51.404;5.474;2023-02-15T09:26:40;30.65;;;19.15;;
45784;SDS011;31489;51.404;5.474;2023-02-15T09:29:10;29.85;;;19.20;;
45784;SDS011;31489;51.404;5.474;2023-02-15T09:31:40;28.15;;;18.55;;
45784;SDS011;31489;51.404;5.474;2023-02-15T09:34:10;32.97;;;19.95;;
45784;SDS011;31489;51.404;5.474;2023-02-15T09:36:38;31.88;;;18.73;;
45784;SDS011;31489;51.404;5.474;2023-02-15T09:39:09;31.35;;;19.58;;
45784;SDS011;31489;51.404;5.474;2023-02-15T09:47:22;26.15;;;19.05;;
45784;SDS011;31489;51.404;5.474;2023-02-15T09:57:30;31.30;;;20.45;;
45784;SDS011;31489;51.404;5.474;2023-02-15T10:03:04;28.67;;;19.27;;
45784;SDS011;31489;51.404;5.474;2023-02-15T10:05:53;31.50;;;19.65;;
45784;SDS011;31489;51.404;5.474;2023-02-15T10:11:17;32.55;;;19.05;;
45784;SDS011;31489;51.404;5.474;2023-02-15T10:27:36;28.25;;;18.75;;
45784;SDS011;31489;51.404;5.474;2023-02-15T10:30:11;29.67;;;19.35;;
45784;SDS011;31489;51.404;5.474;2023-02-15T10:32:52;35.05;;;19.60;;
45784;SDS011;31489;51.404;5.474;2023-02-15T10:35:22;28.02;;;18.60;;
45784;SDS011;31489;51.404;5.474;2023-02-15T10:43:33;28.38;;;17.52;;
45784;SDS011;31489;51.404;5.474;2023-02-15T10:48:48;26.83;;;17.70;;
45784;SDS011;31489;51.404;5.474;2023-02-15T10:51:19;24.75;;;16.42;;
45784;SDS011;31489;51.404;5.474;2023-02-15T10:56:49;24.23;;;17.45;;
45784;SDS011;31489;51.404;5.474;2023-02-15T11:07:43;21.25;;;15.77;;
45784;SDS011;31489;51.404;5.474;2023-02-15T11:12:49;22.88;;;16.38;;
45784;SDS011;31489;51.404;5.474;2023-02-15T11:15:32;24.20;;;16.95;;
45784;SDS011;31489;51.404;5.474;2023-02-15T11:20:52;23.40;;;17.13;;
45784;SDS011;31489;51.404;5.474;2023-02-15T11:23:20;22.65;;;17.13;;
45784;SDS011;31489;51.404;5.474;2023-02-15T11:25:52;26.20;;;17.80;;
45784;SDS011;31489;51.404;5.474;2023-02-15T11:28:33;23.02;;;16.80;;
45784;SDS011;31489;51.404;5.474;2023-02-15T11:31:10;24.40;;;16.58;;
45784;SDS011;31489;51.404;5.474;2023-02-15T11:34:04;23.45;;;16.60;;
45784;SDS011;31489;51.404;5.474;2023-02-15T11:36:40;24.48;;;17.38;;
45784;SDS011;31489;51.404;5.474;2023-02-15T11:39:12;28.58;;;16.35;;
45784;SDS011;31489;51.404;5.474;2023-02-15T11:41:41;23.55;;;17.17;;
45784;SDS011;31489;51.404;5.474;2023-02-15T11:44:13;23.30;;;16.40;;
45784;SDS011;31489;51.404;5.474;2023-02-15T11:46:43;22.30;;;16.45;;
45784;SDS011;31489;51.404;5.474;2023-02-15T11:49:28;24.80;;;16.50;;
45784;SDS011;31489;51.404;5.474;2023-02-15T11:51:55;25.40;;;15.73;;
45784;SDS011;31489;51.404;5.474;2023-02-15T11:54:25;26.85;;;16.63;;
45784;SDS011;31489;51.404;5.474;2023-02-15T11:56:54;22.13;;;15.45;;
45784;SDS011;31489;51.404;5.474;2023-02-15T11:59:32;22.67;;;15.90;;
45784;SDS011;31489;51.404;5.474;2023-02-15T12:02:02;22.35;;;16.02;;
45784;SDS011;31489;51.404;5.474;2023-02-15T12:04:38;23.08;;;16.15;;
45784;SDS011;31489;51.404;5.474;2023-02-15T12:07:11;22.70;;;15.70;;
45784;SDS011;31489;51.404;5.474;2023-02-15T12:09:53;23.50;;;16.35;;
45784;SDS011;31489;51.404;5.474;2023-02-15T12:12:39;25.90;;;16.02;;
45784;SDS011;31489;51.404;5.474;2023-02-15T12:15:06;26.15;;;16.63;;
45784;SDS011;31489;51.404;5.474;2023-02-15T12:17:54;25.75;;;16.35;;
45784;SDS011;31489;51.404;5.474;2023-02-15T12:22:55;25.73;;;16.20;;
45784;SDS011;31489;51.404;5.474;2023-02-15T12:25:35;24.85;;;16.70;;
45784;SDS011;31489;51.404;5.474;2023-02-15T12:28:05;23.08;;;16.30;;
45784;SDS011;31489;51.404;5.474;2023-02-15T12:30:47;23.48;;;16.73;;
45784;SDS011;31489;51.404;5.474;2023-02-15T12:33:30;24.90;;;16.23;;
45784;SDS011;31489;51.404;5.474;2023-02-15T12:35:57;25.25;;;17.05;;
45784;SDS011;31489;51.404;5.474;2023-02-15T12:38:43;23.73;;;16.10;;
45784;SDS011;31489;51.404;5.474;2023-02-15T12:41:36;27.25;;;17.77;;
45784;SDS011;31489;51.404;5.474;2023-02-15T12:46:40;24.77;;;16.42;;
45784;SDS011;31489;51.404;5.474;2023-02-15T12:51:48;27.83;;;17.83;;
45784;SDS011;31489;51.404;5.474;2023-02-15T12:56:55;26.38;;;17.05;;
45784;SDS011;31489;51.404;5.474;2023-02-15T12:59:22;29.65;;;16.77;;
45784;SDS011;31489;51.404;5.474;2023-02-15T13:01:48;24.88;;;16.23;;
45784;SDS011;31489;51.404;5.474;2023-02-15T13:04:25;24.42;;;17.05;;
45784;SDS011;31489;51.404;5.474;2023-02-15T13:06:53;25.38;;;16.38;;
45784;SDS011;31489;51.404;5.474;2023-02-15T13:11:57;25.35;;;16.10;;
45784;SDS011;31489;51.404;5.474;2023-02-15T13:14:36;24.88;;;16.33;;
45784;SDS011;31489;51.404;5.474;2023-02-15T13:17:03;25.33;;;16.40;;
45784;SDS011;31489;51.404;5.474;2023-02-15T13:19:33;26.10;;;16.48;;
45784;SDS011;31489;51.404;5.474;2023-02-15T13:22:19;25.13;;;16.48;;
45784;SDS011;31489;51.404;5.474;2023-02-15T13:25:38;26.42;;;16.60;;
45784;SDS011;31489;51.404;5.474;2023-02-15T13:28:03;26.40;;;16.02;;
45784;SDS011;31489;51.404;5.474;2023-02-15T13:30:31;25.55;;;15.93;;
45784;SDS011;31489;51.404;5.474;2023-02-15T13:33:05;27.67;;;17.05;;
45784;SDS011;31489;51.404;5.474;2023-02-15T13:35:43;30.48;;;17.13;;
45784;SDS011;31489;51.404;5.474;2023-02-15T13:40:55;29.48;;;16.83;;
45784;SDS011;31489;51.404;5.474;2023-02-15T13:48:37;28.95;;;17.15;;
45784;SDS011;31489;51.404;5.474;2023-02-15T13:54:21;29.05;;;17.45;;
45784;SDS011;31489;51.404;5.474;2023-02-15T13:59:31;25.77;;;16.60;;
45784;SDS011;31489;51.404;5.474;2023-02-15T14:12:34;28.17;;;17.83;;
45784;SDS011;31489;51.404;5.474;2023-02-15T14:15:21;29.87;;;17.77;;
45784;SDS011;31489;51.404;5.474;2023-02-15T14:18:18;28.27;;;17.60;;
45784;SDS011;31489;51.404;5.474;2023-02-15T14:23:58;27.95;;;17.25;;
45784;SDS011;31489;51.404;5.474;2023-02-15T14:26:41;27.40;;;17.80;;
45784;SDS011;31489;51.404;5.474;2023-02-15T14:29:33;25.80;;;17.33;;
45784;SDS011;31489;51.404;5.474;2023-02-15T14:32:14;27.00;;;17.63;;
45784;SDS011;31489;51.404;5.474;2023-02-15T14:34:55;28.48;;;18.30;;
45784;SDS011;31489;51.404;5.474;2023-02-15T14:40:29;30.17;;;18.38;;
45784;SDS011;31489;51.404;5.474;2023-02-15T14:49:21;28.02;;;18.10;;
45784;SDS011;31489;51.404;5.474;2023-02-15T14:52:25;35.65;;;20.08;;
45784;SDS011;31489;51.404;5.474;2023-02-15T15:10:04;31.60;;;19.70;;
45784;SDS011;31489;51.404;5.474;2023-02-15T15:12:44;27.30;;;19.17;;
45784;SDS011;31489;51.404;5.474;2023-02-15T15:15:12;26.25;;;19.02;;
45784;SDS011;31489;51.404;5.474;2023-02-15T15:17:58;34.85;;;20.42;;
45784;SDS011;31489;51.404;5.474;2023-02-15T15:20:39;30.85;;;19.77;;
45784;SDS011;31489;51.404;5.474;2023-02-15T15:25:47;27.50;;;18.10;;
45784;SDS011;31489;51.404;5.474;2023-02-15T15:39:28;29.42;;;19.02;;
45784;SDS011;31489;51.404;5.474;2023-02-15T15:42:19;32.60;;;18.88;;
45784;SDS011;31489;51.404;5.474;2023-02-15T15:50:19;28.80;;;19.08;;
45784;SDS011;31489;51.404;5.474;2023-02-15T15:52:56;33.10;;;21.38;;
45784;SDS011;31489;51.404;5.474;2023-02-15T15:55:30;30.98;;;20.73;;
45784;SDS011;31489;51.404;5.474;2023-02-15T15:58:05;30.77;;;19.73;;
45784;SDS011;31489;51.404;5.474;2023-02-15T16:00:37;33.20;;;20.92;;
45784;SDS011;31489;51.404;5.474;2023-02-15T16:03:27;29.45;;;19.65;;
45784;SDS011;31489;51.404;5.474;2023-02-15T16:05:54;33.25;;;21.08;;
45784;SDS011;31489;51.404;5.474;2023-02-15T16:08:31;37.15;;;22.40;;
45784;SDS011;31489;51.404;5.474;2023-02-15T16:11:00;30.25;;;20.98;;
45784;SDS011;31489;51.404;5.474;2023-02-15T16:13:40;31.42;;;20.85;;
45784;SDS011;31489;51.404;5.474;2023-02-15T16:16:06;29.13;;;19.77;;
45784;SDS011;31489;51.404;5.474;2023-02-15T16:18:36;33.30;;;22.27;;
45784;SDS011;31489;51.404;5.474;2023-02-15T16:21:06;30.65;;;20.38;;
45784;SDS011;31489;51.404;5.474;2023-02-15T16:24:01;33.45;;;21.10;;
45784;SDS011;31489;51.404;5.474;2023-02-15T16:29:29;32.97;;;20.77;;
45784;SDS011;31489;51.404;5.474;2023-02-15T16:34:29;34.55;;;20.98;;
45784;SDS011;31489;51.404;5.474;2023-02-15T16:37:13;30.70;;;21.17;;
45784;SDS011;31489;51.404;5.474;2023-02-15T16:39:44;29.95;;;20.15;;
45784;SDS011;31489;51.404;5.474;2023-02-15T16:42:12;28.23;;;19.92;;
45784;SDS011;31489;51.404;5.474;2023-02-15T16:44:39;32.53;;;19.20;;
45784;SDS011;31489;51.404;5.474;2023-02-15T16:47:07;32.33;;;20.42;;
45784;SDS011;31489;51.404;5.474;2023-02-15T16:49:46;27.73;;;18.98;;
45784;SDS011;31489;51.404;5.474;2023-02-15T16:52:15;29.05;;;19.30;;
45784;SDS011;31489;51.404;5.474;2023-02-15T16:54:46;30.63;;;19.83;;
45784;SDS011;31489;51.404;5.474;2023-02-15T16:57:21;31.98;;;20.30;;
45784;SDS011;31489;51.404;5.474;2023-02-15T16:59:49;38.53;;;20.38;;
45784;SDS011;31489;51.404;5.474;2023-02-15T17:02:19;33.25;;;21.15;;
45784;SDS011;31489;51.404;5.474;2023-02-15T17:07:41;34.28;;;21.42;;
45784;SDS011;31489;51.404;5.474;2023-02-15T17:10:33;29.67;;;19.80;;
45784;SDS011;31489;51.404;5.474;2023-02-15T17:13:04;33.00;;;20.27;;
45784;SDS011;31489;51.404;5.474;2023-02-15T17:15:43;31.40;;;21.23;;
45784;SDS011;31489;51.404;5.474;2023-02-15T17:18:25;31.23;;;21.48;;
45784;SDS011;31489;51.404;5.474;2023-02-15T17:20:57;32.00;;;21.08;;
45784;SDS011;31489;51.404;5.474;2023-02-15T17:23:36;35.55;;;21.45;;
45784;SDS011;31489;51.404;5.474;2023-02-15T17:26:23;37.47;;;23.35;;
45784;SDS011;31489;51.404;5.474;2023-02-15T17:31:39;35.85;;;22.45;;
45784;SDS011;31489;51.404;5.474;2023-02-15T17:34:05;32.53;;;20.73;;
45784;SDS011;31489;51.404;5.474;2023-02-15T17:37:00;29.95;;;20.95;;
45784;SDS011;31489;51.404;5.474;2023-02-15T17:39:27;30.33;;;21.95;;
45784;SDS011;31489;51.404;5.474;2023-02-15T17:41:53;36.00;;;23.17;;
45784;SDS011;31489;51.404;5.474;2023-02-15T17:44:18;33.78;;;22.23;;
45784;SDS011;31489;51.404;5.474;2023-02-15T17:46:44;38.80;;;23.58;;
45784;SDS011;31489;51.404;5.474;2023-02-15T17:49:23;35.47;;;22.88;;
45784;SDS011;31489;51.404;5.474;2023-02-15T17:51:59;35.55;;;22.80;;
45784;SDS011;31489;51.404;5.474;2023-02-15T17:54:28;39.55;;;24.35;;
45784;SDS011;31489;51.404;5.474;2023-02-15T17:57:12;37.03;;;23.00;;
45784;SDS011;31489;51.404;5.474;2023-02-15T17:59:40;36.22;;;22.50;;